createdAt,value
2022-11-23T00:00:59.341Z,17.97
2022-11-23T00:06:06.306Z,17.83
2022-11-23T00:11:11.785Z,18.10
2022-11-23T00:16:17.573Z,17.42
2022-11-23T00:21:22.530Z,17.63
2022-11-23T00:26:27.899Z,16.37
2022-11-23T00:31:31.892Z,18.40
2022-11-23T00:36:35.830Z,17.92
2022-11-23T00:41:41.194Z,15.95
2022-11-23T00:46:45.183Z,18.02
2022-11-23T00:51:49.255Z,18.45
2022-11-23T00:56:54.707Z,15.02
2022-11-23T01:01:59.308Z,17.10
2022-11-23T01:07:03.473Z,17.95
2022-11-23T01:12:10.524Z,17.10
2022-11-23T01:17:14.500Z,9.30
2022-11-23T01:22:20.310Z,17.27
2022-11-23T01:27:28.032Z,17.02
2022-11-23T01:32:32.002Z,16.30
2022-11-23T01:37:35.929Z,13.82
2022-11-23T01:42:55.325Z,17.58
2022-11-23T01:47:59.351Z,17.83
2022-11-23T01:53:03.884Z,16.17
2022-11-23T01:58:10.612Z,13.00
2022-11-23T02:03:14.909Z,16.77
2022-11-23T02:08:20.238Z,16.45
2022-11-23T02:13:26.145Z,14.82
2022-11-23T02:18:32.274Z,14.50
2022-11-23T02:23:44.758Z,15.35
2022-11-23T02:28:53.827Z,15.80
2022-11-23T02:33:57.650Z,12.18
2022-11-23T02:39:02.542Z,13.73
2022-11-23T02:44:10.169Z,9.73
2022-11-23T02:49:14.055Z,9.80
2022-11-23T02:54:18.065Z,13.88
2022-11-23T02:59:23.522Z,10.43
2022-11-23T03:04:29.311Z,14.80
2022-11-23T03:09:33.486Z,8.80
2022-11-23T03:14:39.737Z,8.82
2022-11-23T03:24:49.634Z,8.10
2022-11-23T03:29:55.653Z,8.20
2022-11-23T03:35:00.142Z,8.65
2022-11-23T03:40:06.005Z,8.52
2022-11-23T03:45:30.080Z,8.73
2022-11-23T03:50:34.668Z,9.65
2022-11-23T03:55:39.125Z,8.07
2022-11-23T04:00:44.674Z,9.25
2022-11-23T04:05:51.611Z,9.88
2022-11-23T04:11:24.964Z,13.27
2022-11-23T04:16:30.462Z,18.55
2022-11-23T04:21:34.590Z,21.65
2022-11-23T04:26:40.597Z,33.47
2022-11-23T04:31:47.975Z,41.92
2022-11-23T04:36:55.258Z,51.28
2022-11-23T04:42:06.425Z,56.90
2022-11-23T04:47:12.626Z,63.42
2022-11-23T04:52:16.718Z,73.78
2022-11-23T04:57:26.804Z,75.53
2022-11-23T05:02:32.133Z,77.63
2022-11-23T05:07:45.688Z,78.28
2022-11-23T05:12:50.007Z,78.35
2022-11-23T05:17:59.071Z,80.32
2022-11-23T05:23:03.418Z,83.00
2022-11-23T05:28:38.051Z,82.57
2022-11-23T05:33:37.518Z,85.18
2022-11-23T05:38:42.688Z,86.45
2022-11-23T05:43:52.325Z,89.57
2022-11-23T05:49:02.349Z,93.50
2022-11-23T05:54:11.220Z,89.05
2022-11-23T05:59:32.227Z,94.13
2022-11-23T06:04:40.672Z,95.57
2022-11-23T06:09:48.310Z,101.20
2022-11-23T06:14:52.257Z,107.63
2022-11-23T06:20:00.757Z,106.28
2022-11-23T06:25:05.218Z,112.13
2022-11-23T06:30:17.286Z,109.55
2022-11-23T06:35:23.213Z,108.03
2022-11-23T06:40:27.530Z,110.78
2022-11-23T06:45:32.012Z,113.30
2022-11-23T06:50:41.998Z,107.35
2022-11-23T06:55:46.347Z,107.50
2022-11-23T07:00:53.720Z,110.20
2022-11-23T07:05:59.271Z,110.82
2022-11-23T07:11:06.843Z,113.75
2022-11-23T07:16:11.266Z,105.77
2022-11-23T07:21:17.068Z,107.88
2022-11-23T07:26:21.261Z,105.28
2022-11-23T07:31:25.305Z,104.10
2022-11-23T07:36:31.706Z,100.65
2022-11-23T07:41:35.786Z,100.13
2022-11-23T07:46:54.250Z,102.60
2022-11-23T07:51:59.591Z,101.95
2022-11-23T07:57:03.566Z,100.43
2022-11-23T08:02:07.775Z,102.80
2022-11-23T08:07:13.134Z,102.82
2022-11-23T08:12:17.040Z,96.47
2022-11-23T08:17:20.931Z,100.32
2022-11-23T08:22:27.194Z,98.15
2022-11-23T08:27:31.190Z,95.13
2022-11-23T08:32:35.081Z,90.75
2022-11-23T08:37:40.331Z,91.55
2022-11-23T08:42:44.162Z,86.93
2022-11-23T08:47:48.001Z,86.70
2022-11-23T08:52:58.069Z,84.35
2022-11-23T08:58:02.081Z,78.10
2022-11-23T09:03:06.046Z,71.53
2022-11-23T09:08:11.401Z,64.60
2022-11-23T09:13:15.673Z,61.30
2022-11-23T09:18:19.623Z,58.38
2022-11-23T09:23:27.058Z,55.15
2022-11-23T09:28:31.532Z,53.10
2022-11-23T09:33:35.590Z,49.53
2022-11-23T09:38:57.476Z,44.30
2022-11-23T09:44:04.241Z,43.25
2022-11-23T09:49:17.734Z,41.67
2022-11-23T09:54:28.142Z,35.30
2022-11-23T09:59:39.861Z,34.63
2022-11-23T10:04:44.691Z,32.50
2022-11-23T10:09:57.030Z,33.63
2022-11-23T10:15:05.662Z,32.63
2022-11-23T10:20:22.118Z,29.20
2022-11-23T10:25:33.589Z,29.20
2022-11-23T10:30:41.987Z,29.40
2022-11-23T10:35:46.012Z,24.95
2022-11-23T10:41:00.020Z,22.23
2022-11-23T10:46:32.645Z,21.63
2022-11-23T10:51:36.927Z,16.90
2022-11-23T10:56:47.854Z,11.40
2022-11-23T11:02:01.829Z,7.90
2022-11-23T11:07:19.678Z,7.90
2022-11-23T11:12:25.672Z,11.52
2022-11-23T11:22:36.606Z,7.35
2022-11-23T11:27:52.544Z,7.72
2022-11-23T11:33:04.831Z,7.55
2022-11-23T11:38:13.230Z,7.20
2022-11-23T11:43:23.026Z,7.25
2022-11-23T11:48:35.515Z,8.10
2022-11-23T11:53:45.574Z,8.30
2022-11-23T11:58:56.735Z,8.82
2022-11-23T12:04:03.457Z,16.23
2022-11-23T12:09:11.979Z,12.85
2022-11-23T12:14:17.854Z,14.77
2022-11-23T12:19:22.669Z,13.07
2022-11-23T12:24:37.060Z,11.27
2022-11-23T12:29:55.211Z,17.35
2022-11-23T12:35:43.706Z,23.42
2022-11-23T12:40:58.610Z,15.05
2022-11-23T12:46:12.358Z,19.08
2022-11-23T12:51:25.549Z,16.00
2022-11-23T12:56:56.920Z,14.10
2022-11-23T13:02:04.478Z,22.33
2022-11-23T13:07:49.289Z,15.48
2022-11-23T13:13:14.115Z,19.73
2022-11-23T13:18:32.033Z,22.15
2022-11-23T13:23:37.147Z,22.30
2022-11-23T13:28:41.131Z,23.37
2022-11-23T13:33:47.482Z,23.17
2022-11-23T13:38:51.381Z,20.10
2022-11-23T13:43:55.321Z,26.08
2022-11-23T13:49:00.912Z,26.98
2022-11-23T13:54:06.748Z,26.55
2022-11-23T13:59:30.392Z,26.83
2022-11-23T14:04:37.260Z,28.63
2022-11-23T14:09:46.625Z,31.13
2022-11-23T14:14:55.758Z,27.88
2022-11-23T14:20:31.194Z,27.55
2022-11-23T14:25:43.958Z,24.52
2022-11-23T14:30:58.034Z,23.52
2022-11-23T14:36:14.690Z,20.52
2022-11-23T14:41:20.754Z,22.67
2022-11-23T14:46:26.091Z,24.25
2022-11-23T14:51:31.838Z,23.87
2022-11-23T14:56:38.441Z,23.23
2022-11-23T15:01:47.256Z,23.15
2022-11-23T15:06:54.259Z,21.17
2022-11-23T15:12:07.544Z,26.80
2022-11-23T15:17:16.149Z,24.55
2022-11-23T15:22:21.465Z,23.20
2022-11-23T15:27:29.558Z,23.65
2022-11-23T15:32:35.277Z,23.90
2022-11-23T15:37:45.783Z,25.13
2022-11-23T15:42:51.487Z,24.65
2022-11-23T15:47:55.429Z,23.75
2022-11-23T15:53:02.185Z,21.90
2022-11-23T15:58:08.149Z,23.85
2022-11-23T16:03:32.181Z,24.02
2022-11-23T16:08:38.364Z,24.48
2022-11-23T16:13:42.479Z,22.45
2022-11-23T16:18:47.203Z,24.83
2022-11-23T16:23:54.503Z,24.58
2022-11-23T16:28:59.747Z,23.85
2022-11-23T16:34:03.892Z,22.53
2022-11-23T16:39:09.254Z,22.98
2022-11-23T16:44:13.420Z,22.90
2022-11-23T16:49:19.665Z,20.55
2022-11-23T16:54:25.667Z,21.45
2022-11-23T17:04:33.758Z,20.75
2022-11-23T17:09:39.518Z,18.98
2022-11-23T17:14:43.612Z,19.05
2022-11-23T17:19:49.682Z,20.00
2022-11-23T17:24:55.182Z,18.75
2022-11-23T17:30:00.606Z,7.37
2022-11-23T17:35:04.819Z,16.02
2022-11-23T17:40:15.050Z,18.40
2022-11-23T17:45:19.155Z,16.00
2022-11-23T17:50:25.182Z,15.77
2022-11-23T17:55:30.744Z,16.42
2022-11-23T18:00:34.903Z,16.88
2022-11-23T18:05:38.939Z,7.03
2022-11-23T18:10:44.352Z,7.35
2022-11-23T18:15:48.354Z,5.50
2022-11-23T18:20:52.381Z,6.65
2022-11-23T18:26:01.496Z,6.90
2022-11-23T18:31:05.523Z,6.72
2022-11-23T18:36:10.672Z,5.72
2022-11-23T18:41:17.056Z,4.60
2022-11-23T18:46:21.435Z,6.20
2022-11-23T18:51:26.246Z,6.60
2022-11-23T18:56:31.752Z,6.80
2022-11-23T19:01:35.918Z,7.00
2022-11-23T19:06:40.163Z,7.90
2022-11-23T19:11:45.533Z,6.55
2022-11-23T19:16:49.595Z,6.73
2022-11-23T19:21:53.619Z,6.97
2022-11-23T19:26:59.174Z,6.90
2022-11-23T19:32:03.185Z,6.80
2022-11-23T19:37:07.324Z,7.03
2022-11-23T19:42:12.725Z,6.78
2022-11-23T19:47:22.385Z,6.72
2022-11-23T19:52:48.422Z,6.60
2022-11-23T19:57:55.731Z,6.68
2022-11-23T20:02:59.837Z,6.88
2022-11-23T20:08:03.874Z,6.57
2022-11-23T20:13:09.401Z,6.20
2022-11-23T20:18:13.510Z,14.05
2022-11-23T20:23:17.531Z,6.18
2022-11-23T20:28:22.962Z,6.50
2022-11-23T20:33:27.006Z,6.50
2022-11-23T20:38:31.044Z,6.30
2022-11-23T20:43:36.398Z,12.52
2022-11-23T20:48:40.842Z,6.80
2022-11-23T20:53:47.922Z,6.82
2022-11-23T20:58:59.790Z,7.53
2022-11-23T21:04:03.976Z,8.52
2022-11-23T21:09:09.059Z,8.10
2022-11-23T21:14:18.186Z,6.18
2022-11-23T21:19:24.073Z,7.93
2022-11-23T21:24:29.416Z,7.15
2022-11-23T21:29:34.637Z,7.63
2022-11-23T21:34:38.538Z,5.20
2022-11-23T21:39:44.621Z,7.28
2022-11-23T21:44:53.583Z,7.10
2022-11-23T21:49:57.370Z,7.97
2022-11-23T21:55:01.133Z,7.63
2022-11-23T22:00:07.401Z,7.68
2022-11-23T22:05:16.042Z,7.25
2022-11-23T22:10:19.855Z,7.47
2022-11-23T22:15:25.150Z,7.78
2022-11-23T22:20:28.894Z,7.87
2022-11-23T22:25:32.936Z,9.15
2022-11-23T22:30:38.137Z,7.82
2022-11-23T22:35:41.947Z,10.17
2022-11-23T22:40:47.137Z,16.55
2022-11-23T22:45:52.648Z,8.50
2022-11-23T22:50:57.425Z,8.13
2022-11-23T22:56:02.953Z,12.93
2022-11-23T23:01:09.399Z,9.98
2022-11-23T23:06:16.910Z,10.07
2022-11-23T23:11:21.295Z,12.38
2022-11-23T23:16:27.598Z,10.88
2022-11-23T23:21:31.539Z,14.07
2022-11-23T23:26:35.573Z,11.15
2022-11-23T23:31:41.435Z,8.82
2022-11-23T23:41:48.769Z,8.02
2022-11-23T23:46:53.931Z,16.55
2022-11-23T23:51:57.799Z,13.07
2022-11-23T23:57:01.696Z,11.82
